Time;durP1;ratioP1;P1;durP2;ratioP2;P2;SDS_P1;SDS_P2;PMS_P1;PMS_P2;Temp;Humidity;BMP_temperature;BMP_pressure;BME280_temperature;BME280_humidity;BME280_pressure;Samples;Min_cycle;Max_cycle;Signal;HPM_P1;HPM_P2
2022/03/31 00:01:18;;;;;;;;;;;4.30;99.90;;;;;;5060429;28;20041;-69
2022/03/31 00:03:44;;;;;;;44.88;21.30;;;4.20;99.90;;;;;;5059166;28;19921;-68
2022/03/31 00:06:09;;;;;;;52.90;24.77;;;4.20;99.90;;;;;;5080170;28;20063;-69
2022/03/31 00:08:35;;;;;;;40.72;20.48;;;4.10;99.90;;;;;;5064232;28;20090;-69
2022/03/31 00:11:00;;;;;;;44.05;21.55;;;4.10;99.90;;;;;;5058075;28;20140;-69
2022/03/31 00:13:28;;;;;;;46.38;21.60;;;4.10;99.90;;;;;;5057776;28;20675;-70
2022/03/31 00:15:57;;;;;;;39.72;20.90;;;4.20;99.90;;;;;;5071699;28;20237;-70
2022/03/31 00:18:25;;;;;;;39.50;21.08;;;4.20;99.90;;;;;;5064247;28;20102;-69
2022/03/31 00:20:51;;;;;;;34.40;19.15;;;4.10;99.90;;;;;;5050420;28;20183;-69
2022/03/31 00:23:17;;;;;;;36.20;18.75;;;4.20;99.90;;;;;;5045408;28;20795;-69
2022/03/31 00:25:43;;;;;;;43.35;20.73;;;4.20;99.90;;;;;;5058413;28;20044;-69
2022/03/31 00:28:09;;;;;;;40.13;19.48;;;4.20;99.90;;;;;;5065617;28;20041;-69
2022/03/31 00:30:35;;;;;;;33.38;18.75;;;4.20;99.90;;;;;;5051173;28;20133;-69
2022/03/31 00:33:02;;;;;;;34.38;17.85;;;4.20;99.90;;;;;;5045250;28;20135;-69
2022/03/31 00:35:27;;;;;;;36.85;17.83;;;4.20;99.90;;;;;;5054934;28;20687;-69
2022/03/31 00:37:53;;;;;;;32.88;15.90;;;4.20;99.90;;;;;;5054940;28;20051;-69
2022/03/31 00:40:21;;;;;;;33.30;16.30;;;4.30;99.90;;;;;;5051493;28;20082;-69
2022/03/31 00:42:51;;;;;;;34.42;14.93;;;4.20;99.90;;;;;;5065064;28;20041;-69
2022/03/31 00:45:19;;;;;;;36.92;14.40;;;4.20;99.90;;;;;;5058231;28;20090;-69
2022/03/31 00:47:46;;;;;;;30.02;15.07;;;4.20;99.90;;;;;;5044881;28;20037;-70
2022/03/31 00:50:13;;;;;;;32.60;14.63;;;4.10;99.90;;;;;;5050626;28;20098;-70
2022/03/31 00:52:40;;;;;;;28.73;13.23;;;4.10;99.90;;;;;;5064921;28;20117;-70
2022/03/31 00:55:06;;;;;;;31.48;13.68;;;4.20;99.90;;;;;;5054225;28;20485;-67
2022/03/31 00:57:34;;;;;;;29.75;14.45;;;4.20;99.90;;;;;;5054146;28;20041;-67
2022/03/31 01:00:00;;;;;;;26.33;13.65;;;4.30;99.90;;;;;;5045434;28;20033;-68
2022/03/31 01:02:32;;;;;;;33.75;13.80;;;4.30;99.90;;;;;;5043669;28;20515;-71
2022/03/31 01:05:01;;;;;;;27.92;12.95;;;4.20;99.90;;;;;;5044985;28;20087;-67
2022/03/31 01:07:27;;;;;;;27.85;12.85;;;4.30;99.90;;;;;;5044572;28;20056;-69
2022/03/31 01:09:54;;;;;;;29.88;13.38;;;4.20;99.90;;;;;;5043058;28;20044;-69
2022/03/31 01:12:20;;;;;;;25.70;13.70;;;4.30;99.90;;;;;;5064958;28;20040;-68
2022/03/31 01:14:46;;;;;;;34.45;12.95;;;4.20;99.90;;;;;;5064004;28;20208;-69
2022/03/31 01:17:11;;;;;;;;;;;4.20;99.90;;;;;;5045291;28;20044;-70
2022/03/31 01:19:37;;;;;;;32.30;13.30;;;4.10;99.90;;;;;;5044446;28;19920;-68
2022/03/31 01:22:04;;;;;;;29.88;13.38;;;4.10;99.90;;;;;;5064576;28;20678;-69
2022/03/31 01:24:29;;;;;;;22.92;10.73;;;4.10;99.90;;;;;;5065825;28;20043;-68
2022/03/31 01:26:55;;;;;;;20.95;10.77;;;4.20;99.90;;;;;;5065366;28;20040;-68
2022/03/31 01:29:23;;;;;;;31.23;13.30;;;4.20;99.90;;;;;;5063723;28;20045;-70
2022/03/31 01:31:49;;;;;;;21.40;11.77;;;4.10;99.90;;;;;;5050078;28;20505;-70
2022/03/31 01:34:15;;;;;;;29.45;12.07;;;4.10;99.90;;;;;;5041970;28;20039;-69
2022/03/31 01:36:40;;;;;;;22.08;10.40;;;4.10;99.90;;;;;;5054074;28;20041;-69
2022/03/31 01:39:06;;;;;;;23.40;10.30;;;4.10;99.90;;;;;;5043564;28;20033;-68
2022/03/31 01:41:31;;;;;;;21.55;9.60;;;4.10;99.90;;;;;;5053658;28;20068;-69
2022/03/31 01:43:57;;;;;;;;;;;4.10;99.90;;;;;;5064640;28;20036;-70
2022/03/31 01:46:23;;;;;;;16.45;8.75;;;4.00;99.90;;;;;;5056388;28;20028;-69
2022/03/31 01:48:51;;;;;;;;;;;4.00;99.90;;;;;;5046781;28;20048;-71
2022/03/31 01:51:16;;;;;;;23.52;10.38;;;4.00;99.90;;;;;;5044018;28;19960;-70
2022/03/31 01:53:42;;;;;;;22.02;8.85;;;4.00;99.90;;;;;;5044111;28;20069;-70
2022/03/31 01:56:07;;;;;;;22.38;9.13;;;4.00;99.90;;;;;;5048250;28;20040;-70
2022/03/31 01:58:34;;;;;;;20.10;8.88;;;4.00;99.90;;;;;;5063154;28;20580;-71
2022/03/31 02:00:59;;;;;;;23.63;9.73;;;3.90;99.90;;;;;;5060521;28;20040;-70
2022/03/31 02:03:25;;;;;;;24.38;9.65;;;3.90;99.90;;;;;;5043621;28;20036;-70
2022/03/31 02:05:51;;;;;;;;;;;3.90;99.90;;;;;;5045369;28;20562;-71
2022/03/31 02:08:19;;;;;;;24.92;9.70;;;4.00;99.90;;;;;;5051242;28;19974;-69
2022/03/31 02:10:45;;;;;;;25.92;9.00;;;4.00;99.90;;;;;;5043409;28;20043;-70
2022/03/31 02:13:11;;;;;;;19.10;8.93;;;4.00;99.90;;;;;;5057749;28;20045;-69
2022/03/31 02:15:37;;;;;;;23.73;9.63;;;4.10;99.90;;;;;;5041672;28;20070;-69
2022/03/31 02:18:03;;;;;;;21.02;9.38;;;4.10;99.90;;;;;;5051867;28;20480;-70
2022/03/31 02:20:30;;;;;;;19.23;9.55;;;4.10;99.90;;;;;;5043020;28;20033;-70
2022/03/31 02:22:58;;;;;;;22.48;9.93;;;4.10;99.90;;;;;;5041900;28;20447;-69
2022/03/31 02:25:24;;;;;;;19.30;8.95;;;4.20;99.90;;;;;;5042777;28;20055;-69
2022/03/31 02:27:52;;;;;;;21.00;9.18;;;4.10;99.90;;;;;;5057410;28;20108;-71
2022/03/31 02:30:18;;;;;;;16.73;8.75;;;4.20;99.90;;;;;;5062126;28;20040;-70
2022/03/31 02:32:44;;;;;;;21.83;9.23;;;4.10;99.90;;;;;;5049556;28;20726;-70
2022/03/31 02:35:11;;;;;;;18.38;8.48;;;4.10;99.90;;;;;;5042386;28;20091;-70
2022/03/31 02:37:36;;;;;;;21.23;10.05;;;4.10;99.90;;;;;;5044399;28;20511;-70
2022/03/31 02:40:04;;;;;;;26.50;10.20;;;4.10;99.90;;;;;;5041886;28;20123;-70
2022/03/31 02:42:30;;;;;;;22.50;10.05;;;4.10;99.90;;;;;;5053290;28;20052;-69
2022/03/31 02:44:56;;;;;;;19.75;9.02;;;4.00;99.90;;;;;;5062958;28;20123;-72
2022/03/31 02:47:21;;;;;;;25.67;10.48;;;4.00;99.90;;;;;;5055201;28;20119;-69
2022/03/31 02:49:47;;;;;;;24.92;10.82;;;3.90;99.90;;;;;;5042874;28;20125;-70
2022/03/31 02:52:13;;;;;;;;;;;3.90;99.90;;;;;;5049173;28;20400;-70
2022/03/31 02:57:22;;;;;;;25.98;12.45;;;3.90;99.90;;;;;;5042854;28;20044;-70
2022/03/31 02:59:48;;;;;;;25.63;11.80;;;4.00;99.90;;;;;;5042612;28;20103;-70
2022/03/31 03:02:14;;;;;;;25.48;12.73;;;4.00;99.90;;;;;;5040881;28;20098;-70
2022/03/31 03:04:39;;;;;;;26.05;12.38;;;4.00;99.90;;;;;;5036782;28;20047;-70
2022/03/31 03:07:05;;;;;;;24.92;12.70;;;4.00;99.90;;;;;;5042886;28;20515;-70
2022/03/31 03:09:31;;;;;;;;;;;4.00;99.90;;;;;;5042659;28;20128;-71
2022/03/31 03:11:57;;;;;;;29.40;13.57;;;4.00;99.90;;;;;;5041594;28;19925;-69
2022/03/31 03:14:22;;;;;;;;;;;3.90;99.90;;;;;;5063603;28;20064;-69
2022/03/31 03:16:48;;;;;;;28.65;13.23;;;3.80;99.90;;;;;;5061659;28;19923;-70
2022/03/31 03:19:13;;;;;;;29.48;12.82;;;3.80;99.90;;;;;;5043661;28;20116;-69
2022/03/31 03:21:40;;;;;;;34.08;15.85;;;3.80;99.90;;;;;;5041171;28;20068;-70
2022/03/31 03:24:05;;;;;;;33.08;13.75;;;3.70;99.90;;;;;;5059370;28;20040;-70
2022/03/31 03:26:31;;;;;;;33.25;15.93;;;3.70;99.90;;;;;;5062400;28;20408;-70
2022/03/31 03:28:57;;;;;;;29.30;13.90;;;3.60;99.90;;;;;;5047586;28;20067;-70
2022/03/31 03:31:23;;;;;;;36.55;16.73;;;3.60;99.90;;;;;;5041847;28;20037;-71
2022/03/31 03:33:48;;;;;;;36.72;15.80;;;3.50;99.90;;;;;;5055995;28;20028;-70
2022/03/31 03:36:17;;;;;;;32.60;15.68;;;3.40;99.90;;;;;;5063595;28;20044;-69
2022/03/31 03:38:43;;;;;;;33.22;14.75;;;3.30;99.90;;;;;;5050443;28;20053;-69
2022/03/31 03:41:11;;;;;;;30.08;15.50;;;3.30;99.90;;;;;;5041804;28;20118;-69
2022/03/31 03:43:37;;;;;;;33.47;15.93;;;3.20;99.90;;;;;;5053605;28;20052;-69
2022/03/31 03:46:03;;;;;;;27.90;14.55;;;3.20;99.90;;;;;;5061693;28;20044;-71
2022/03/31 03:48:28;;;;;;;30.30;15.13;;;3.30;99.90;;;;;;5054745;28;20044;-70
2022/03/31 03:50:55;;;;;;;34.67;16.10;;;3.30;99.90;;;;;;5043201;28;20083;-70
2022/03/31 03:53:21;;;;;;;33.22;15.02;;;3.40;99.90;;;;;;5054632;28;20071;-69
2022/03/31 03:55:46;;;;;;;30.20;15.43;;;3.40;99.90;;;;;;5047862;28;20045;-69
2022/03/31 03:58:12;;;;;;;35.80;16.17;;;3.40;99.90;;;;;;5052030;28;20558;-69
2022/03/31 04:00:37;;;;;;;31.25;15.65;;;3.40;99.90;;;;;;5065603;28;20048;-68
2022/03/31 04:03:03;;;;;;;32.35;15.75;;;3.40;99.90;;;;;;5062896;28;20517;-71
2022/03/31 04:05:29;;;;;;;39.60;16.25;;;3.30;99.90;;;;;;5047429;28;20037;-69
2022/03/31 04:07:54;;;;;;;37.95;15.90;;;3.20;99.90;;;;;;5045535;28;20045;-68
2022/03/31 04:10:20;;;;;;;36.53;19.27;;;3.20;99.90;;;;;;5045400;28;20398;-69
2022/03/31 04:12:45;;;;;;;38.90;17.98;;;3.20;99.90;;;;;;5047810;28;20049;-69
2022/03/31 04:15:13;;;;;;;38.13;18.80;;;3.20;99.90;;;;;;5050836;28;20039;-69
2022/03/31 04:17:39;;;;;;;42.28;20.60;;;3.10;99.90;;;;;;5045452;28;20072;-69
2022/03/31 04:20:06;;;;;;;44.47;20.00;;;3.10;99.90;;;;;;5044178;28;20048;-69
2022/03/31 04:22:37;;;;;;;37.05;19.63;;;3.10;99.90;;;;;;5045638;28;20041;-69
2022/03/31 04:25:04;;;;;;;39.58;19.33;;;3.10;99.90;;;;;;5062134;28;20048;-68
2022/03/31 04:27:29;;;;;;;45.40;19.65;;;3.10;99.90;;;;;;5065630;28;20071;-68
2022/03/31 04:29:55;;;;;;;41.90;20.65;;;3.20;99.90;;;;;;5049866;28;20199;-68
2022/03/31 04:32:20;;;;;;;42.97;20.67;;;3.00;99.90;;;;;;5045131;28;20562;-68
2022/03/31 04:34:46;;;;;;;41.83;20.05;;;2.90;99.90;;;;;;5058238;28;20048;-68
2022/03/31 04:37:12;;;;;;;45.58;20.83;;;2.80;99.90;;;;;;5059644;28;20037;-68
2022/03/31 04:39:37;;;;;;;42.65;20.92;;;2.70;99.90;;;;;;5049552;28;20106;-68
2022/03/31 04:42:03;;;;;;;47.20;21.40;;;2.70;99.90;;;;;;5045486;28;20041;-68
2022/03/31 04:44:29;;;;;;;47.38;21.27;;;2.70;99.90;;;;;;5054663;28;20044;-68
2022/03/31 04:46:54;;;;;;;47.03;22.90;;;2.60;99.90;;;;;;5065162;28;20044;-68
2022/03/31 04:49:20;;;;;;;51.53;23.92;;;2.40;99.90;;;;;;5058230;28;20472;-68
2022/03/31 04:51:45;;;;;;;50.10;24.45;;;2.30;99.90;;;;;;5045110;28;20048;-69
2022/03/31 04:54:11;;;;;;;55.47;25.17;;;2.30;99.90;;;;;;5050418;28;20568;-69
2022/03/31 04:56:39;;;;;;;50.72;24.23;;;2.20;99.90;;;;;;5064670;28;20575;-71
2022/03/31 04:59:05;;;;;;;48.33;23.33;;;2.10;99.90;;;;;;5061734;28;20801;-70
2022/03/31 05:01:31;;;;;;;49.72;23.02;;;2.10;99.90;;;;;;5044356;28;20497;-69
2022/03/31 05:03:57;;;;;;;51.25;21.38;;;2.00;99.90;;;;;;5047211;28;20047;-69
2022/03/31 05:06:22;;;;;;;51.72;23.95;;;2.10;99.90;;;;;;5065023;28;20051;-70
2022/03/31 05:08:48;;;;;;;56.90;23.15;;;2.20;99.90;;;;;;5046451;28;20481;-69
2022/03/31 05:11:14;;;;;;;44.60;22.67;;;2.20;99.90;;;;;;5043517;28;20117;-70
2022/03/31 05:13:39;;;;;;;52.45;24.10;;;2.30;99.90;;;;;;5044842;28;20592;-71
2022/03/31 05:16:05;;;;;;;45.47;21.67;;;2.40;99.90;;;;;;5062575;28;20540;-69
2022/03/31 05:18:32;;;;;;;43.22;21.98;;;2.40;99.90;;;;;;5065158;28;20029;-68
2022/03/31 05:20:58;;;;;;;47.40;22.75;;;2.30;99.90;;;;;;5047554;28;20055;-69
2022/03/31 05:23:23;;;;;;;47.70;25.85;;;2.20;99.90;;;;;;5045868;28;20868;-67
2022/03/31 05:25:49;;;;;;;48.08;23.40;;;2.10;99.90;;;;;;5058693;28;20756;-67
2022/03/31 05:28:15;;;;;;;44.58;22.27;;;2.00;99.90;;;;;;5064971;28;20072;-69
2022/03/31 05:30:42;;;;;;;47.53;24.23;;;2.10;99.90;;;;;;5050004;28;20116;-67
2022/03/31 05:33:08;;;;;;;52.08;24.63;;;2.10;99.90;;;;;;5040600;28;20039;-66
2022/03/31 05:35:34;;;;;;;44.80;23.10;;;2.20;99.90;;;;;;5049860;28;20041;-69
2022/03/31 05:38:00;;;;;;;47.15;23.90;;;2.30;99.90;;;;;;5042214;28;20573;-68
2022/03/31 05:40:26;;;;;;;48.72;23.90;;;2.30;99.90;;;;;;5043739;28;20052;-70
2022/03/31 05:42:52;;;;;;;48.70;23.40;;;2.40;99.90;;;;;;5044603;28;20041;-70
2022/03/31 05:45:18;;;;;;;46.17;24.05;;;2.30;99.90;;;;;;5047609;28;20029;-69
2022/03/31 05:47:44;;;;;;;48.65;23.98;;;2.30;99.90;;;;;;5044960;28;20520;-68
2022/03/31 05:50:11;;;;;;;48.78;25.10;;;2.20;99.90;;;;;;5043633;28;20277;-68
2022/03/31 05:52:42;;;;;;;51.92;25.73;;;2.10;99.90;;;;;;5044001;28;20056;-69
2022/03/31 05:55:09;;;;;;;42.17;22.13;;;2.10;99.90;;;;;;5048797;28;20504;-68
2022/03/31 05:57:36;;;;;;;53.10;25.15;;;2.10;99.90;;;;;;5064579;28;20052;-66
2022/03/31 06:00:05;;;;;;;49.15;23.55;;;2.20;99.90;;;;;;5058763;28;20041;-65
2022/03/31 06:02:30;;;;;;;48.03;23.35;;;2.10;99.90;;;;;;5040492;28;20049;-66
2022/03/31 06:04:56;;;;;;;46.03;22.88;;;2.10;99.90;;;;;;5044997;28;20052;-66
2022/03/31 06:07:21;;;;;;;45.28;23.20;;;2.20;99.90;;;;;;5041178;28;20128;-66
2022/03/31 06:09:47;;;;;;;48.83;23.40;;;2.20;99.90;;;;;;5043541;28;20135;-66
2022/03/31 06:12:13;;;;;;;48.42;23.13;;;2.30;99.90;;;;;;5050436;28;20033;-66
2022/03/31 06:14:38;;;;;;;44.50;22.70;;;2.30;99.90;;;;;;5052837;28;20032;-66
2022/03/31 06:17:04;;;;;;;43.00;22.02;;;2.30;99.90;;;;;;5042225;28;20033;-66
2022/03/31 06:19:30;;;;;;;43.30;21.27;;;2.40;99.90;;;;;;5034462;28;20048;-66
2022/03/31 06:21:56;;;;;;;41.92;21.58;;;2.40;99.90;;;;;;5050793;28;20261;-66
2022/03/31 06:24:22;;;;;;;39.38;21.00;;;2.50;99.90;;;;;;5043853;28;20142;-66
2022/03/31 06:26:48;;;;;;;47.97;22.17;;;2.40;99.90;;;;;;5056108;28;20039;-66
2022/03/31 06:29:14;;;;;;;44.50;23.33;;;2.50;99.90;;;;;;5063591;28;20321;-66
2022/03/31 06:31:40;;;;;;;41.28;21.25;;;2.60;99.90;;;;;;5049856;28;20067;-66
2022/03/31 06:34:06;;;;;;;43.45;21.98;;;2.50;99.90;;;;;;5042076;28;20040;-67
2022/03/31 06:36:32;;;;;;;43.42;21.33;;;2.50;99.90;;;;;;5052595;28;20151;-67
2022/03/31 06:38:58;;;;;;;40.65;20.80;;;2.50;99.90;;;;;;5043441;28;20044;-67
2022/03/31 06:41:23;;;;;;;41.85;20.08;;;2.50;99.90;;;;;;5052166;28;20115;-68
2022/03/31 06:43:50;;;;;;;40.08;20.42;;;2.60;99.90;;;;;;5062545;28;20121;-67
2022/03/31 06:46:17;;;;;;;44.00;21.58;;;2.70;99.90;;;;;;5056521;28;20083;-67
2022/03/31 06:48:46;;;;;;;39.50;20.75;;;2.60;99.90;;;;;;5042341;28;20040;-67
2022/03/31 06:51:14;;;;;;;38.58;20.40;;;2.60;99.90;;;;;;5049024;28;20038;-68
2022/03/31 06:53:41;;;;;;;42.63;19.50;;;2.70;99.90;;;;;;5060166;28;20036;-68
2022/03/31 06:56:09;;;;;;;47.17;23.30;;;2.70;99.90;;;;;;5047307;28;20044;-67
2022/03/31 06:58:36;;;;;;;42.47;21.80;;;2.70;99.90;;;;;;5063018;28;20072;-67
2022/03/31 07:01:03;;;;;;;40.88;21.60;;;2.80;99.90;;;;;;5057626;28;20029;-67
2022/03/31 07:03:28;;;;;;;39.53;21.23;;;2.60;99.90;;;;;;5041868;28;20121;-67
2022/03/31 07:05:55;;;;;;;42.33;20.05;;;2.70;99.90;;;;;;5044461;28;20087;-67
2022/03/31 07:08:21;;;;;;;45.75;21.80;;;2.70;99.90;;;;;;5048695;28;20037;-67
2022/03/31 07:10:46;;;;;;;46.08;21.52;;;2.70;99.90;;;;;;5042776;28;20037;-67
2022/03/31 07:13:12;;;;;;;43.20;19.88;;;2.70;99.90;;;;;;5061539;28;20094;-68
2022/03/31 07:15:38;;;;;;;40.13;21.02;;;2.70;99.90;;;;;;5062505;28;20502;-68
2022/03/31 07:18:05;;;;;;;44.75;22.00;;;2.70;99.90;;;;;;5043835;28;20033;-67
2022/03/31 07:20:34;;;;;;;39.72;20.90;;;2.60;99.90;;;;;;5042232;28;20485;-67
2022/03/31 07:23:00;;;;;;;42.58;22.35;;;2.50;99.90;;;;;;5041651;28;20041;-67
2022/03/31 07:25:27;;;;;;;39.72;20.65;;;2.50;99.90;;;;;;5040670;28;20094;-67
2022/03/31 07:27:53;;;;;;;42.05;20.80;;;2.60;99.90;;;;;;5041901;28;20048;-67
2022/03/31 07:30:20;;;;;;;38.40;20.02;;;2.50;99.90;;;;;;5045377;28;20079;-66
2022/03/31 07:32:56;;;;;;;40.90;20.88;;;2.50;99.90;;;;;;5045878;28;20174;-67
2022/03/31 07:35:25;;;;;;;39.63;20.42;;;2.50;99.90;;;;;;5045802;28;20179;-64
2022/03/31 07:37:52;;;;;;;40.85;22.35;;;2.60;99.90;;;;;;5048547;28;20037;-67
2022/03/31 07:40:20;;;;;;;41.53;22.08;;;2.70;99.90;;;;;;5047031;28;20036;-67
2022/03/31 07:42:45;;;;;;;46.85;23.90;;;2.80;99.90;;;;;;5055604;28;20131;-67
2022/03/31 07:45:14;;;;;;;45.00;22.55;;;2.70;99.90;;;;;;5066705;28;20170;-66
2022/03/31 07:47:40;;;;;;;41.47;21.70;;;2.60;99.90;;;;;;5066759;28;20674;-67
2022/03/31 07:50:09;;;;;;;46.80;24.05;;;2.70;99.90;;;;;;5066538;28;20080;-64
2022/03/31 07:52:38;;;;;;;45.50;22.92;;;2.60;99.90;;;;;;5057253;28;20045;-66
2022/03/31 07:55:06;;;;;;;48.60;23.55;;;2.60;99.90;;;;;;5042492;28;20052;-66
2022/03/31 07:57:32;;;;;;;49.47;25.70;;;2.60;99.90;;;;;;5048328;28;20056;-66
2022/03/31 07:59:58;;;;;;;49.00;23.40;;;2.50;99.90;;;;;;5045797;28;20037;-66
2022/03/31 08:02:25;;;;;;;47.33;24.77;;;2.40;99.90;;;;;;5050189;28;20658;-66
2022/03/31 08:04:54;;;;;;;47.08;23.77;;;2.40;99.90;;;;;;5049055;28;20045;-66
2022/03/31 08:07:20;;;;;;;48.63;25.02;;;2.50;99.90;;;;;;5045751;28;20106;-67
2022/03/31 08:09:45;;;;;;;51.58;25.15;;;2.60;99.90;;;;;;5046985;28;20037;-66
2022/03/31 08:12:11;;;;;;;48.55;23.60;;;2.50;99.90;;;;;;5044356;28;20033;-66
2022/03/31 08:14:37;;;;;;;54.80;26.65;;;2.50;99.90;;;;;;5045650;28;20041;-66
2022/03/31 08:17:03;;;;;;;51.38;23.40;;;2.50;99.90;;;;;;5045502;28;20135;-66
2022/03/31 08:19:32;;;;;;;49.88;24.60;;;2.60;99.90;;;;;;5045184;28;20108;-67
2022/03/31 08:22:01;;;;;;;51.28;24.85;;;2.70;99.90;;;;;;5045444;28;20040;-65
2022/03/31 08:24:27;;;;;;;46.75;24.15;;;2.70;99.90;;;;;;5045269;28;20049;-67
2022/03/31 08:26:53;;;;;;;43.00;21.27;;;2.70;99.90;;;;;;5045020;28;20703;-67
2022/03/31 08:29:18;;;;;;;45.15;23.02;;;2.70;99.90;;;;;;5045335;28;20041;-65
2022/03/31 08:31:44;;;;;;;47.78;23.10;;;2.80;99.90;;;;;;5044243;28;20055;-68
2022/03/31 08:34:10;;;;;;;45.33;22.92;;;2.90;99.90;;;;;;5050773;28;20052;-67
2022/03/31 08:36:36;;;;;;;50.00;24.13;;;3.00;99.90;;;;;;5045534;28;20043;-67
2022/03/31 08:39:06;;;;;;;42.40;22.05;;;3.10;99.90;;;;;;5049160;28;20205;-67
2022/03/31 08:41:33;;;;;;;46.05;22.80;;;3.00;99.90;;;;;;5045612;28;20064;-67
2022/03/31 08:43:58;;;;;;;43.90;22.85;;;2.90;99.90;;;;;;5059055;28;20051;-65
2022/03/31 08:46:31;;;;;;;40.45;21.30;;;2.90;99.90;;;;;;5065478;28;20041;-67
2022/03/31 08:48:57;;;;;;;42.40;21.17;;;3.00;99.90;;;;;;5052987;28;20044;-68
2022/03/31 08:51:24;;;;;;;40.15;20.40;;;3.10;99.90;;;;;;5044917;28;20044;-66
2022/03/31 08:53:50;;;;;;;42.50;21.70;;;3.10;99.90;;;;;;5052056;28;20071;-67
2022/03/31 08:56:16;;;;;;;38.50;20.02;;;3.00;99.90;;;;;;5045009;28;20077;-68
2022/03/31 08:58:46;;;;;;;40.15;21.48;;;3.00;99.90;;;;;;5054464;28;20123;-68
2022/03/31 09:01:14;;;;;;;42.35;19.88;;;3.10;99.90;;;;;;5065386;28;20124;-68
2022/03/31 09:03:41;;;;;;;43.58;19.85;;;3.10;99.90;;;;;;5056400;28;20044;-68
2022/03/31 09:06:10;;;;;;;43.30;21.23;;;3.10;99.90;;;;;;5045190;28;20186;-68
2022/03/31 09:08:36;;;;;;;47.58;22.73;;;3.10;99.90;;;;;;5045181;28;20044;-68
2022/03/31 09:11:03;;;;;;;45.85;22.98;;;3.00;99.90;;;;;;5044605;28;20033;-68
2022/03/31 09:13:34;;;;;;;49.88;23.40;;;2.90;99.90;;;;;;5050224;28;20680;-67
2022/03/31 09:16:11;;;;;;;51.28;22.60;;;2.80;99.90;;;;;;5063308;28;20133;-67
2022/03/31 09:18:38;;;;;;;49.20;23.83;;;2.80;99.90;;;;;;5058985;28;20585;-67
2022/03/31 09:21:06;;;;;;;41.13;21.77;;;2.80;99.90;;;;;;5043819;28;20116;-66
2022/03/31 09:23:50;;;;;;;46.67;23.13;;;2.80;99.90;;;;;;5049201;28;20056;-67
2022/03/31 09:26:17;;;;;;;49.40;23.23;;;2.90;99.90;;;;;;5064201;28;20040;-66
2022/03/31 09:28:44;;;;;;;66.63;24.00;;;3.00;99.90;;;;;;5058824;28;20768;-66
2022/03/31 09:31:11;;;;;;;53.38;24.55;;;3.00;99.90;;;;;;5043775;28;20746;-67
2022/03/31 09:33:45;;;;;;;51.35;24.05;;;2.90;99.90;;;;;;5048065;28;20036;-66
2022/03/31 09:36:21;;;;;;;57.45;25.92;;;2.90;99.90;;;;;;5063607;28;20079;-67
2022/03/31 09:38:58;;;;;;;53.30;24.70;;;2.90;99.90;;;;;;5050782;28;20551;-66
2022/03/31 09:41:43;;;;;;;54.72;24.98;;;2.90;99.90;;;;;;5023394;28;20042;-67
2022/03/31 09:44:14;;;;;;;57.17;26.17;;;2.80;99.90;;;;;;5037575;28;20385;-67
2022/03/31 09:46:41;;;;;;;61.65;29.52;;;2.90;99.90;;;;;;5063825;28;20739;-67
2022/03/31 09:49:11;;;;;;;56.25;28.52;;;2.90;99.90;;;;;;5054446;28;20037;-67
2022/03/31 09:51:37;;;;;;;56.60;27.42;;;2.80;99.90;;;;;;5042652;28;20056;-67
2022/03/31 09:54:04;;;;;;;57.50;28.52;;;2.90;99.90;;;;;;5046439;28;20748;-66
2022/03/31 09:56:38;;;;;;;64.53;30.10;;;2.90;99.90;;;;;;5043657;28;20619;-66
2022/03/31 09:59:06;;;;;;;62.78;29.05;;;2.90;99.90;;;;;;5043879;28;20040;-67
2022/03/31 10:01:33;;;;;;;56.47;26.58;;;3.00;99.90;;;;;;5043142;28;20694;-67
2022/03/31 10:03:59;;;;;;;65.13;29.30;;;3.10;99.90;;;;;;5046321;28;20049;-67
2022/03/31 10:06:25;;;;;;;62.92;27.88;;;3.10;99.90;;;;;;5061982;28;20036;-66
2022/03/31 10:08:52;;;;;;;62.88;28.25;;;3.20;99.90;;;;;;5044427;28;20036;-66
2022/03/31 10:11:20;;;;;;;68.53;28.95;;;3.30;99.90;;;;;;5042897;28;20083;-66
2022/03/31 10:14:21;;;;;;;59.67;27.13;;;3.30;99.90;;;;;;5044567;28;20102;-66
2022/03/31 10:16:59;;;;;;;61.33;27.35;;;3.30;99.90;;;;;;5041278;28;20048;-66
2022/03/31 10:19:35;;;;;;;55.08;26.27;;;3.30;99.90;;;;;;5042882;28;20040;-66
2022/03/31 10:24:41;;;;;;;63.67;26.40;;;3.30;99.90;;;;;;5042490;28;20033;-66
2022/03/31 10:24:57;;;;;;;44.67;22.52;;;3.30;99.90;;;;;;5050940;28;20260;-66
2022/03/31 10:27:27;;;;;;;51.67;23.63;;;3.40;99.90;;;;;;5061381;28;20044;-66
2022/03/31 10:29:54;;;;;;;51.67;25.10;;;3.40;99.90;;;;;;5056310;28;20047;-67
2022/03/31 10:32:23;;;;;;;69.63;30.75;;;3.50;99.90;;;;;;5042921;28;20048;-66
2022/03/31 10:34:50;;;;;;;72.15;32.90;;;3.30;99.90;;;;;;5048155;28;20068;-68
2022/03/31 10:37:31;;;;;;;84.75;34.83;;;3.30;99.90;;;;;;5057754;28;20508;-66
2022/03/31 10:39:56;;;;;;;67.78;29.98;;;3.10;99.90;;;;;;5049047;28;20051;-66
2022/03/31 10:42:23;;;;;;;76.47;31.25;;;3.10;99.90;;;;;;5063353;28;20041;-68
2022/03/31 10:44:49;;;;;;;70.80;32.42;;;3.10;99.90;;;;;;5061115;28;20040;-67
2022/03/31 10:47:15;;;;;;;77.03;33.63;;;3.00;99.90;;;;;;5043859;28;20051;-67
2022/03/31 10:49:52;;;;;;;69.47;29.10;;;3.00;99.90;;;;;;5044912;28;20041;-68
2022/03/31 10:52:23;;;;;;;69.47;31.10;;;2.90;99.90;;;;;;5063158;28;20056;-68
2022/03/31 10:54:52;;;;;;;67.57;28.73;;;3.00;99.90;;;;;;5052654;28;20041;-68
2022/03/31 10:57:19;;;;;;;66.20;29.52;;;3.00;99.90;;;;;;5063947;28;20051;-67
2022/03/31 10:59:47;;;;;;;67.35;28.50;;;3.00;99.90;;;;;;5062284;28;20044;-67
2022/03/31 11:02:22;;;;;;;62.67;29.90;;;3.20;99.90;;;;;;5042589;28;20054;-67
2022/03/31 11:04:56;;;;;;;63.20;29.10;;;3.30;99.90;;;;;;5043307;28;20124;-67
2022/03/31 11:07:28;;;;;;;66.15;30.52;;;3.30;99.90;;;;;;5056520;28;20111;-67
2022/03/31 11:10:12;;;;;;;59.97;27.85;;;3.30;99.90;;;;;;5044401;28;20044;-67
2022/03/31 11:12:38;;;;;;;60.72;26.75;;;3.30;99.90;;;;;;5063078;28;20050;-67
2022/03/31 11:15:05;;;;;;;57.67;26.17;;;3.40;99.90;;;;;;5060569;28;20083;-67
2022/03/31 11:17:31;;;;;;;59.92;26.13;;;3.30;99.90;;;;;;5042719;28;20052;-67
2022/03/31 11:19:58;;;;;;;56.63;25.08;;;3.30;99.90;;;;;;5042751;28;20033;-68
2022/03/31 11:22:28;;;;;;;63.83;26.63;;;3.40;99.90;;;;;;5063191;28;20111;-67
2022/03/31 11:25:06;;;;;;;56.38;26.85;;;3.40;99.90;;;;;;5062781;28;20557;-67
2022/03/31 11:27:37;;;;;;;64.00;27.63;;;3.30;99.90;;;;;;5022697;28;20045;-67
2022/03/31 11:30:07;;;;;;;57.25;26.73;;;3.40;99.90;;;;;;5021327;28;20041;-68
2022/03/31 11:32:34;;;;;;;53.40;25.58;;;3.30;99.90;;;;;;5022012;28;20483;-67
2022/03/31 11:35:01;;;;;;;61.20;27.55;;;3.30;99.90;;;;;;5022748;28;20044;-67
2022/03/31 11:37:27;;;;;;;63.72;28.25;;;3.30;99.90;;;;;;5053398;28;20094;-67
2022/03/31 11:39:53;;;;;;;60.03;28.80;;;3.30;99.90;;;;;;5042754;28;20091;-67
2022/03/31 11:42:19;;;;;;;57.22;27.17;;;3.40;99.90;;;;;;5059309;28;20606;-68
2022/03/31 11:44:44;;;;;;;56.10;26.63;;;3.50;99.90;;;;;;5062679;28;20048;-68
2022/03/31 11:47:21;;;;;;;59.10;27.73;;;3.60;99.90;;;;;;5047935;28;20033;-68
2022/03/31 11:49:58;;;;;;;56.47;26.77;;;3.50;99.90;;;;;;5059748;28;20142;-68
2022/03/31 11:52:32;;;;;;;62.47;28.02;;;3.40;99.90;;;;;;5046284;28;20604;-67
2022/03/31 11:55:00;;;;;;;59.08;27.83;;;3.60;99.90;;;;;;5042800;28;20041;-66
2022/03/31 11:57:28;;;;;;;56.88;27.70;;;3.60;99.90;;;;;;5058476;28;20052;-68
2022/03/31 11:59:54;;;;;;;60.75;28.33;;;3.70;99.90;;;;;;5061895;28;20708;-67
2022/03/31 12:02:20;;;;;;;63.10;30.58;;;3.70;99.90;;;;;;5047155;28;20147;-67
2022/03/31 12:04:48;;;;;;;57.78;27.98;;;3.80;99.90;;;;;;5043059;28;20636;-68
2022/03/31 12:07:14;;;;;;;62.65;28.08;;;3.70;99.90;;;;;;5049274;28;20496;-68
2022/03/31 12:09:42;;;;;;;62.00;28.35;;;3.70;99.90;;;;;;5040094;28;20041;-67
2022/03/31 12:12:12;;;;;;;63.85;29.35;;;3.70;99.90;;;;;;5042645;28;20693;-67
2022/03/31 12:14:38;;;;;;;57.45;29.35;;;3.60;99.90;;;;;;5044466;28;20045;-66
2022/03/31 12:17:06;;;;;;;70.25;30.65;;;3.50;99.90;;;;;;5052044;28;20037;-67
2022/03/31 12:19:39;;;;;;;64.60;29.20;;;3.50;99.90;;;;;;5044268;28;20048;-66
2022/03/31 12:22:05;;;;;;;62.05;29.75;;;3.50;99.90;;;;;;5044214;28;20033;-66
2022/03/31 12:24:31;;;;;;;64.03;29.40;;;3.60;99.90;;;;;;5046346;28;20763;-65
2022/03/31 12:26:58;;;;;;;61.28;29.52;;;3.60;99.90;;;;;;5045516;28;20056;-66
2022/03/31 12:29:26;;;;;;;56.70;27.75;;;3.60;99.90;;;;;;5045834;28;20044;-68
2022/03/31 12:32:04;;;;;;;52.67;26.95;;;3.60;99.90;;;;;;5051428;28;20128;-68
2022/03/31 12:34:30;;;;;;;54.28;26.40;;;3.60;99.90;;;;;;5063370;28;20135;-67
2022/03/31 12:36:57;;;;;;;58.03;28.13;;;3.70;99.90;;;;;;5042451;28;20135;-67
2022/03/31 12:39:23;;;;;;;60.33;25.85;;;3.60;99.90;;;;;;5043048;28;20045;-66
2022/03/31 12:41:53;;;;;;;52.25;25.80;;;3.70;99.90;;;;;;5044748;28;20067;-67
2022/03/31 12:44:21;;;;;;;50.22;26.73;;;3.70;99.90;;;;;;5037552;28;20124;-70